Time;durP1;ratioP1;P1;durP2;ratioP2;P2;SDS_P1;SDS_P2;PMS_P1;PMS_P2;Temp;Humidity;BMP_temperature;BMP_pressure;BME280_temperature;BME280_humidity;BME280_pressure;Samples;Min_cycle;Max_cycle;Signal;HPM_P1;HPM_P2
2022/01/27 00:01:44;;;;;;;51.10;21.17;;;5.00;99.90;;;;;;5063404;28;20201;-43
2022/01/27 00:04:16;;;;;;;52.30;23.27;;;5.00;99.90;;;;;;5078355;28;20194;-43
2022/01/27 00:06:44;;;;;;;47.50;22.13;;;5.00;99.90;;;;;;5078963;28;20228;-44
2022/01/27 00:09:17;;;;;;;53.93;22.43;;;5.00;99.90;;;;;;5078612;28;20208;-45
2022/01/27 00:11:47;;;;;;;45.27;20.33;;;5.00;99.90;;;;;;5079071;28;20572;-43
2022/01/27 00:14:17;;;;;;;54.20;21.60;;;5.00;99.90;;;;;;5068135;28;20607;-48
2022/01/27 00:16:53;;;;;;;51.13;21.03;;;5.00;99.90;;;;;;5057022;28;20322;-44
2022/01/27 00:19:20;;;;;;;53.27;22.63;;;5.00;99.90;;;;;;5075341;28;20217;-46
2022/01/27 00:21:47;;;;;;;50.57;22.90;;;5.00;99.90;;;;;;5078568;28;20277;-44
2022/01/27 00:24:15;;;;;;;52.00;22.03;;;5.00;99.90;;;;;;5077054;28;20205;-46
2022/01/27 00:26:42;;;;;;;53.10;22.97;;;5.00;99.90;;;;;;5069123;28;20293;-47
2022/01/27 00:29:10;;;;;;;46.93;21.90;;;5.00;99.90;;;;;;5078256;28;20198;-48
2022/01/27 00:31:37;;;;;;;39.10;18.97;;;5.00;99.90;;;;;;5062756;28;20214;-45
2022/01/27 00:34:04;;;;;;;37.73;19.80;;;5.10;99.90;;;;;;5079172;28;20190;-45
2022/01/27 00:36:32;;;;;;;47.63;22.00;;;5.10;99.90;;;;;;5076028;28;20291;-44
2022/01/27 00:38:59;;;;;;;52.97;23.77;;;5.10;99.90;;;;;;5079221;28;20220;-44
2022/01/27 00:41:26;;;;;;;57.97;23.13;;;5.10;99.90;;;;;;5075607;28;20957;-47
2022/01/27 00:43:53;;;;;;;41.73;20.07;;;5.10;99.90;;;;;;5079345;28;20202;-47
2022/01/27 00:46:21;;;;;;;49.40;22.77;;;5.10;99.90;;;;;;5075557;28;20218;-46
2022/01/27 00:48:49;;;;;;;48.07;23.50;;;5.10;99.90;;;;;;5061885;28;20209;-45
2022/01/27 00:51:22;;;;;;;50.53;24.30;;;5.10;99.90;;;;;;5063363;28;20205;-47
2022/01/27 00:53:54;;;;;;;55.90;23.97;;;5.20;99.90;;;;;;5065734;28;20231;-44
2022/01/27 00:56:27;;;;;;;60.83;24.87;;;5.20;99.90;;;;;;5060028;28;20235;-48
2022/01/27 00:59:06;;;;;;;44.97;21.23;;;5.20;99.90;;;;;;5065327;28;20218;-44
2022/01/27 01:01:39;;;;;;;45.50;21.23;;;5.20;99.90;;;;;;5062590;28;20816;-46
2022/01/27 01:04:09;;;;;;;56.33;25.77;;;5.20;99.90;;;;;;5050274;28;20222;-46
2022/01/27 01:06:41;;;;;;;58.57;27.97;;;5.20;99.90;;;;;;5062685;28;20901;-48
2022/01/27 01:14:43;;;;;;;58.80;26.07;;;5.20;99.90;;;;;;5063236;28;20265;-44
2022/01/27 01:17:29;;;;;;;52.00;25.07;;;5.20;99.90;;;;;;5057291;28;20730;-44
2022/01/27 01:30:58;;;;;;;53.80;26.97;;;5.20;99.90;;;;;;5065165;28;20562;-44
2022/01/27 01:33:33;;;;;;;56.47;26.23;;;5.20;99.90;;;;;;5046468;28;20919;-44
2022/01/27 01:36:13;;;;;;;56.70;25.73;;;5.20;99.90;;;;;;5064387;28;20540;-43
2022/01/27 01:38:40;;;;;;;50.40;23.30;;;5.20;99.90;;;;;;5057435;28;20529;-43
2022/01/27 01:41:07;;;;;;;57.17;25.77;;;5.20;99.90;;;;;;5063886;28;20206;-44
2022/01/27 01:43:34;;;;;;;53.37;24.50;;;5.10;99.90;;;;;;5061995;28;20197;-46
2022/01/27 01:46:23;;;;;;;51.97;27.07;;;5.20;99.90;;;;;;5060502;28;20996;-48
2022/01/27 01:48:51;;;;;;;62.27;28.93;;;5.10;99.90;;;;;;5049832;28;20203;-44
2022/01/27 01:51:25;;;;;;;54.77;27.77;;;5.20;99.90;;;;;;5061209;28;20195;-43
2022/01/27 01:53:53;;;;;;;51.63;25.10;;;5.20;99.90;;;;;;5064596;28;20287;-46
2022/01/27 01:56:20;;;;;;;49.37;24.37;;;5.10;99.90;;;;;;5051906;28;20213;-46
2022/01/27 01:58:47;;;;;;;54.87;26.63;;;5.10;99.90;;;;;;5063857;28;20230;-45
2022/01/27 02:01:14;;;;;;;53.63;27.40;;;5.10;99.90;;;;;;5061061;28;20207;-44
2022/01/27 02:03:44;;;;;;;61.23;28.47;;;5.20;99.90;;;;;;5063629;28;20210;-44
2022/01/27 02:06:19;;;;;;;35.70;19.27;;;5.20;99.90;;;;;;5047445;28;20337;-43
2022/01/27 02:09:05;;;;;;;59.20;28.43;;;5.20;99.90;;;;;;5063898;28;20224;-44
2022/01/27 02:19:51;;;;;;;53.67;25.73;;;5.30;99.90;;;;;;5045190;28;20214;-44
2022/01/27 02:22:19;;;;;;;51.80;26.33;;;5.30;99.90;;;;;;5060474;28;20205;-45
2022/01/27 02:24:47;;;;;;;40.30;22.97;;;5.30;99.90;;;;;;5062988;28;20206;-45
2022/01/27 02:27:15;;;;;;;48.10;24.23;;;5.30;99.90;;;;;;5059833;28;20234;-44
2022/01/27 02:29:44;;;;;;;41.30;20.80;;;5.40;99.90;;;;;;5058074;28;20281;-43
2022/01/27 02:32:12;;;;;;;49.03;24.90;;;5.40;99.90;;;;;;5061843;28;20225;-47
2022/01/27 02:34:39;;;;;;;44.40;24.47;;;5.40;99.90;;;;;;5047596;28;20213;-44
2022/01/27 02:37:08;;;;;;;42.53;22.83;;;5.40;99.90;;;;;;5061961;28;20215;-45
2022/01/27 02:39:35;;;;;;;44.93;23.27;;;5.40;99.90;;;;;;5059758;28;21017;-44
2022/01/27 02:42:07;;;;;;;33.00;19.17;;;5.40;99.90;;;;;;5063589;28;20199;-44
2022/01/27 02:44:43;;;;;;;42.50;23.17;;;5.40;99.90;;;;;;5060517;28;20248;-44
2022/01/27 02:47:10;;;;;;;45.53;22.20;;;5.40;99.90;;;;;;5061499;28;20229;-46
2022/01/27 02:49:37;;;;;;;47.70;24.90;;;5.40;99.90;;;;;;5061149;28;20227;-45
2022/01/27 02:52:04;;;;;;;38.77;20.20;;;5.40;99.90;;;;;;5048910;28;20565;-43
2022/01/27 02:54:32;;;;;;;39.93;22.40;;;5.40;99.90;;;;;;5059980;28;20202;-47
2022/01/27 02:56:59;;;;;;;41.60;22.20;;;5.40;99.90;;;;;;5062726;28;20562;-51
2022/01/27 02:59:26;;;;;;;43.57;23.20;;;5.40;99.90;;;;;;5058755;28;20218;-44
2022/01/27 03:01:53;;;;;;;39.60;20.33;;;5.50;99.90;;;;;;5063472;28;20209;-44
2022/01/27 03:04:21;;;;;;;37.73;21.00;;;5.40;99.90;;;;;;5059702;28;20289;-44
2022/01/27 03:06:49;;;;;;;33.07;19.87;;;5.50;99.90;;;;;;5048990;28;20256;-46
2022/01/27 03:09:16;;;;;;;40.20;22.07;;;5.50;99.90;;;;;;5060061;28;20210;-45
2022/01/27 03:11:47;;;;;;;43.37;22.37;;;5.50;99.90;;;;;;5062024;28;20202;-49
2022/01/27 03:14:15;;;;;;;48.30;24.17;;;5.50;99.90;;;;;;5059517;28;20672;-46
2022/01/27 03:16:42;;;;;;;45.37;21.70;;;5.50;99.90;;;;;;5061716;28;20937;-46
2022/01/27 03:19:09;;;;;;;42.80;23.13;;;5.50;99.90;;;;;;5061832;28;20214;-47
2022/01/27 03:21:37;;;;;;;28.83;17.37;;;5.50;99.90;;;;;;5046659;28;20211;-44
2022/01/27 03:24:04;;;;;;;44.73;22.27;;;5.50;99.90;;;;;;5062670;28;20202;-45
2022/01/27 03:26:32;;;;;;;36.90;19.33;;;5.50;99.90;;;;;;5056985;28;20297;-44
2022/01/27 03:29:00;;;;;;;39.83;22.83;;;5.50;99.90;;;;;;5062763;28;20245;-45
2022/01/27 03:31:28;;;;;;;41.27;23.20;;;5.50;99.90;;;;;;5058902;28;20194;-46
2022/01/27 03:33:55;;;;;;;40.43;21.43;;;5.50;99.90;;;;;;5063236;28;20210;-46
2022/01/27 03:36:22;;;;;;;34.13;17.07;;;5.50;99.90;;;;;;5058681;28;20222;-48
2022/01/27 03:38:49;;;;;;;48.00;23.00;;;5.40;99.90;;;;;;5047963;28;20221;-44
2022/01/27 03:41:19;;;;;;;40.30;20.57;;;5.40;99.90;;;;;;5059801;28;20203;-44
2022/01/27 03:43:48;;;;;;;43.37;22.90;;;5.40;99.90;;;;;;5062666;28;20244;-44
2022/01/27 03:46:17;;;;;;;50.07;24.90;;;5.40;99.90;;;;;;5060140;28;20218;-46
2022/01/27 03:48:44;;;;;;;44.97;22.73;;;5.30;99.90;;;;;;5055900;28;20222;-47
2022/01/27 03:51:11;;;;;;;34.30;18.30;;;5.30;99.90;;;;;;5054760;28;20198;-44
2022/01/27 03:53:38;;;;;;;49.00;23.97;;;5.30;99.90;;;;;;5039933;28;20207;-46
2022/01/27 03:56:05;;;;;;;45.07;21.40;;;5.20;99.90;;;;;;5057365;28;20210;-45
2022/01/27 03:58:33;;;;;;;39.60;19.77;;;5.20;99.90;;;;;;5052812;28;20217;-46
2022/01/27 04:01:01;;;;;;;44.23;21.53;;;5.20;99.90;;;;;;5056498;28;20741;-44
2022/01/27 04:03:31;;;;;;;43.40;22.93;;;5.20;99.90;;;;;;5052299;28;20191;-46
2022/01/27 04:06:05;;;;;;;37.87;22.10;;;5.20;99.90;;;;;;5056219;28;20226;-44
2022/01/27 04:08:32;;;;;;;39.10;20.47;;;5.10;99.90;;;;;;5044944;28;20210;-44
2022/01/27 04:10:59;;;;;;;39.93;20.77;;;5.10;99.90;;;;;;5062481;28;20489;-44
2022/01/27 04:13:26;;;;;;;43.73;22.47;;;5.20;99.90;;;;;;5058250;28;20786;-44
2022/01/27 04:15:53;;;;;;;44.10;23.03;;;5.20;99.90;;;;;;5062365;28;20211;-45
2022/01/27 04:18:20;;;;;;;52.93;23.93;;;5.20;99.90;;;;;;5059036;28;20195;-44
2022/01/27 04:20:48;;;;;;;42.33;21.97;;;5.10;99.90;;;;;;5062200;28;20209;-46
2022/01/27 04:23:17;;;;;;;38.57;19.80;;;5.10;99.90;;;;;;5050604;28;20195;-45
2022/01/27 04:25:45;;;;;;;44.67;22.27;;;5.10;99.90;;;;;;5061460;28;20221;-43
2022/01/27 04:28:15;;;;;;;44.67;21.67;;;5.10;99.90;;;;;;5063991;28;20199;-47
2022/01/27 04:30:42;;;;;;;33.07;16.80;;;5.10;99.90;;;;;;5064824;28;20282;-44
2022/01/27 04:33:09;;;;;;;36.33;20.23;;;5.20;99.90;;;;;;5064953;28;20202;-44
2022/01/27 04:35:40;;;;;;;42.23;22.53;;;5.10;99.90;;;;;;5063353;28;20293;-44
2022/01/27 04:38:30;;;;;;;31.43;16.00;;;5.10;99.90;;;;;;5064947;28;20207;-45
2022/01/27 04:41:05;;;;;;;46.20;22.53;;;5.10;99.90;;;;;;5051156;28;20280;-43
2022/01/27 04:43:39;;;;;;;38.83;20.30;;;5.10;99.90;;;;;;5062441;28;20206;-43
2022/01/27 04:46:17;;;;;;;40.97;20.70;;;5.10;99.90;;;;;;5059186;28;20570;-46
2022/01/27 04:48:48;;;;;;;42.07;21.20;;;5.10;99.90;;;;;;5065079;28;20266;-48
2022/01/27 04:51:18;;;;;;;39.07;21.80;;;5.10;99.90;;;;;;5063147;28;20210;-47
2022/01/27 04:53:52;;;;;;;38.43;20.67;;;5.10;99.90;;;;;;5065296;28;20210;-46
2022/01/27 04:56:20;;;;;;;38.07;20.43;;;5.10;99.90;;;;;;5047459;28;20717;-44
2022/01/27 04:58:52;;;;;;;43.43;20.93;;;5.10;99.90;;;;;;5065452;28;20622;-49
2022/01/27 05:01:21;;;;;;;36.70;20.23;;;5.10;99.90;;;;;;5062592;28;20202;-44
2022/01/27 05:03:53;;;;;;;38.67;21.63;;;5.10;99.90;;;;;;5065520;28;20202;-48
2022/01/27 05:06:19;;;;;;;38.93;20.00;;;5.10;99.90;;;;;;5061754;28;20218;-46
2022/01/27 05:08:48;;;;;;;35.83;18.40;;;5.10;99.90;;;;;;5053270;28;20202;-43
2022/01/27 05:11:21;;;;;;;32.10;17.40;;;5.10;99.90;;;;;;5049734;28;20211;-46
2022/01/27 05:13:53;;;;;;;43.03;21.30;;;5.10;99.90;;;;;;5062318;28;20207;-44
2022/01/27 05:16:20;;;;;;;25.40;15.03;;;5.00;99.90;;;;;;5064833;28;20223;-44
2022/01/27 05:18:47;;;;;;;43.53;21.53;;;5.00;99.90;;;;;;5056394;28;20340;-44
2022/01/27 05:21:14;;;;;;;35.37;19.93;;;5.00;99.90;;;;;;5057482;28;20195;-43
2022/01/27 05:23:41;;;;;;;35.67;18.00;;;5.00;99.90;;;;;;5057395;28;20285;-46
2022/01/27 05:26:10;;;;;;;35.53;19.20;;;5.00;99.90;;;;;;5053779;28;20236;-44
2022/01/27 05:28:36;;;;;;;36.03;19.80;;;5.00;99.90;;;;;;5046976;28;20207;-47
2022/01/27 05:31:05;;;;;;;27.20;15.87;;;5.00;99.90;;;;;;5049845;28;20203;-51
2022/01/27 05:33:32;;;;;;;27.40;15.53;;;5.00;99.90;;;;;;5053182;28;20833;-44
2022/01/27 05:35:59;;;;;;;30.03;17.50;;;5.00;99.90;;;;;;5050141;28;20230;-45
2022/01/27 05:38:26;;;;;;;21.43;14.43;;;5.00;99.90;;;;;;5054285;28;20207;-43
2022/01/27 05:40:53;;;;;;;27.73;15.63;;;5.00;99.90;;;;;;5057055;28;20595;-46
2022/01/27 05:43:21;;;;;;;32.93;16.07;;;5.00;99.90;;;;;;5045741;28;20212;-45
2022/01/27 05:45:48;;;;;;;28.03;17.20;;;5.00;99.90;;;;;;5059351;28;20623;-45
2022/01/27 05:48:15;;;;;;;37.97;17.73;;;5.00;99.90;;;;;;5055779;28;20206;-48
2022/01/27 05:50:42;;;;;;;23.00;14.10;;;5.10;99.90;;;;;;5056768;28;20965;-45
2022/01/27 05:53:09;;;;;;;34.63;17.03;;;5.10;99.90;;;;;;5056960;28;20202;-44
2022/01/27 05:55:36;;;;;;;30.47;16.47;;;5.10;99.90;;;;;;5061830;28;20267;-46
2022/01/27 05:58:03;;;;;;;19.63;12.60;;;5.00;99.90;;;;;;5055489;28;20206;-44
2022/01/27 06:00:32;;;;;;;32.37;16.23;;;5.00;99.90;;;;;;5045592;28;20215;-48
2022/01/27 06:02:59;;;;;;;32.73;16.87;;;5.00;99.90;;;;;;5064139;28;20195;-45
2022/01/27 06:05:26;;;;;;;21.77;13.63;;;5.10;99.90;;;;;;5060317;28;20946;-44
2022/01/27 06:07:53;;;;;;;29.07;17.10;;;5.10;99.90;;;;;;5056832;28;20206;-43
2022/01/27 06:10:20;;;;;;;27.00;16.53;;;5.10;99.90;;;;;;5060737;28;20202;-48
2022/01/27 06:12:49;;;;;;;25.10;14.23;;;5.10;99.90;;;;;;5064013;28;20658;-43
2022/01/27 06:15:16;;;;;;;29.43;16.63;;;5.10;99.90;;;;;;5047602;28;20280;-43
2022/01/27 06:17:44;;;;;;;23.00;12.87;;;5.10;99.90;;;;;;5061856;28;20196;-43
2022/01/27 06:20:12;;;;;;;22.77;12.63;;;5.10;99.90;;;;;;5046548;28;20215;-45
2022/01/27 06:22:38;;;;;;;15.73;9.57;;;5.10;99.90;;;;;;5048007;28;20203;-45
2022/01/27 06:25:06;;;;;;;25.53;14.23;;;5.10;99.90;;;;;;5059199;28;20349;-50
2022/01/27 06:27:33;;;;;;;27.53;14.83;;;5.20;99.90;;;;;;5053784;28;20203;-44
2022/01/27 06:30:00;;;;;;;24.30;14.23;;;5.10;99.90;;;;;;5037583;28;21842;-44
2022/01/27 06:32:27;;;;;;;24.37;14.07;;;5.10;99.90;;;;;;5056862;28;20218;-43
2022/01/27 06:34:55;;;;;;;23.47;13.77;;;5.10;99.90;;;;;;5054764;28;20197;-44
2022/01/27 06:37:22;;;;;;;27.00;14.73;;;5.10;99.90;;;;;;5042062;28;20211;-48
2022/01/27 06:39:49;;;;;;;22.13;12.47;;;5.10;99.90;;;;;;5056265;28;20938;-44
2022/01/27 06:42:15;;;;;;;20.03;12.50;;;5.10;99.90;;;;;;5050502;28;20680;-43
2022/01/27 06:44:43;;;;;;;17.10;11.67;;;5.10;99.90;;;;;;5041060;28;20201;-44
2022/01/27 06:47:10;;;;;;;25.93;15.43;;;5.10;99.90;;;;;;5058003;28;20237;-46
2022/01/27 06:49:37;;;;;;;19.83;11.90;;;5.10;99.90;;;;;;5056332;28;20194;-43
2022/01/27 06:52:07;;;;;;;26.00;14.10;;;5.10;99.90;;;;;;5059664;28;20189;-43
2022/01/27 06:54:33;;;;;;;18.77;12.37;;;5.10;99.90;;;;;;5049674;28;20663;-45
2022/01/27 06:57:01;;;;;;;21.57;12.87;;;5.10;99.90;;;;;;5051421;28;20291;-45
2022/01/27 06:59:28;;;;;;;22.43;11.67;;;5.10;99.90;;;;;;5055100;28;20218;-44
2022/01/27 07:01:55;;;;;;;22.83;13.47;;;5.10;99.90;;;;;;5044347;28;20199;-44
2022/01/27 07:04:22;;;;;;;24.20;13.77;;;5.10;99.90;;;;;;5050364;28;20203;-43
2022/01/27 07:06:51;;;;;;;23.77;14.17;;;5.10;99.90;;;;;;5053183;28;20211;-44
2022/01/27 07:09:20;;;;;;;24.17;14.30;;;5.20;99.90;;;;;;5048710;28;20213;-43
2022/01/27 07:11:47;;;;;;;17.10;11.63;;;5.20;99.90;;;;;;5043968;28;20803;-45
2022/01/27 07:14:14;;;;;;;18.17;11.33;;;5.20;99.90;;;;;;5053962;28;20187;-46
2022/01/27 07:16:42;;;;;;;18.23;12.00;;;5.20;99.90;;;;;;5038233;28;20218;-44
2022/01/27 07:19:09;;;;;;;22.57;12.47;;;5.20;99.90;;;;;;5055447;28;20651;-46
2022/01/27 07:21:36;;;;;;;21.57;12.23;;;5.20;99.90;;;;;;5062570;28;20209;-46
2022/01/27 07:24:03;;;;;;;23.20;12.67;;;5.20;99.90;;;;;;5060161;28;20217;-44
2022/01/27 07:26:31;;;;;;;16.90;11.03;;;5.20;99.90;;;;;;5059704;28;20220;-48
2022/01/27 07:28:58;;;;;;;17.43;9.87;;;5.20;99.90;;;;;;5050923;28;20206;-46
2022/01/27 07:31:25;;;;;;;18.70;12.13;;;5.30;99.90;;;;;;5046662;28;20201;-45
2022/01/27 07:33:52;;;;;;;25.37;12.00;;;5.30;99.90;;;;;;5062593;28;20195;-46
2022/01/27 07:36:20;;;;;;;22.33;12.80;;;5.30;99.90;;;;;;5055171;28;20235;-45
2022/01/27 07:38:48;;;;;;;21.93;12.10;;;5.30;99.90;;;;;;5056344;28;20217;-46
2022/01/27 07:41:16;;;;;;;25.93;13.00;;;5.30;99.90;;;;;;5052271;28;20272;-44
2022/01/27 07:43:45;;;;;;;20.23;12.30;;;5.30;99.90;;;;;;5050901;28;20309;-44
2022/01/27 07:46:12;;;;;;;18.67;11.90;;;5.30;99.90;;;;;;5037198;28;20317;-44
2022/01/27 07:48:40;;;;;;;15.53;9.17;;;5.30;99.90;;;;;;5053692;28;20218;-47
2022/01/27 07:51:07;;;;;;;18.50;12.03;;;5.30;99.90;;;;;;5045994;28;20218;-45
2022/01/27 07:53:34;;;;;;;14.33;9.50;;;5.30;99.90;;;;;;5051118;28;20187;-47
2022/01/27 07:56:02;;;;;;;21.57;11.63;;;5.30;99.90;;;;;;5052334;28;20211;-44
2022/01/27 07:58:29;;;;;;;17.20;10.57;;;5.40;99.90;;;;;;5060829;28;20252;-45
2022/01/27 08:00:58;;;;;;;15.27;9.00;;;5.40;99.90;;;;;;5045053;28;20214;-46
2022/01/27 08:03:25;;;;;;;20.53;10.23;;;5.40;99.90;;;;;;5036623;28;20210;-50
2022/01/27 08:05:52;;;;;;;13.13;9.63;;;5.40;99.90;;;;;;5048091;28;20222;-45
2022/01/27 08:08:19;;;;;;;14.03;8.33;;;5.40;99.90;;;;;;5055105;28;20218;-44
2022/01/27 08:10:48;;;;;;;19.20;10.80;;;5.40;99.90;;;;;;5055404;28;20186;-43
2022/01/27 08:13:15;;;;;;;16.53;10.03;;;5.40;99.90;;;;;;5062752;28;20206;-46
2022/01/27 08:15:41;;;;;;;18.00;10.27;;;5.40;99.90;;;;;;5055899;28;20226;-45
2022/01/27 08:18:09;;;;;;;19.60;10.20;;;5.50;99.90;;;;;;5049029;28;20222;-46
2022/01/27 08:20:37;;;;;;;16.57;8.60;;;5.40;99.90;;;;;;5056260;28;20697;-44
2022/01/27 08:23:05;;;;;;;19.53;10.13;;;5.50;99.90;;;;;;5051261;28;20199;-47
2022/01/27 08:25:32;;;;;;;14.20;9.37;;;5.50;99.90;;;;;;5056375;28;20582;-45
2022/01/27 08:28:02;;;;;;;12.40;7.93;;;5.50;99.90;;;;;;5060601;28;20198;-44
2022/01/27 08:30:36;;;;;;;15.73;9.03;;;5.50;99.90;;;;;;5056941;28;20198;-44
2022/01/27 08:33:08;;;;;;;13.27;9.10;;;5.50;99.90;;;;;;5045051;28;20229;-47
2022/01/27 08:35:36;;;;;;;15.57;9.37;;;5.50;99.90;;;;;;5057250;28;20264;-44
2022/01/27 08:38:03;;;;;;;11.70;7.80;;;5.60;99.90;;;;;;5060858;28;20740;-43
2022/01/27 08:40:30;;;;;;;23.00;10.40;;;5.60;99.90;;;;;;5048976;28;20214;-45
2022/01/27 08:42:57;;;;;;;15.50;8.63;;;5.60;99.90;;;;;;5062620;28;20967;-43
2022/01/27 08:45:24;;;;;;;13.47;8.77;;;5.60;99.90;;;;;;5059341;28;20273;-48
2022/01/27 08:47:54;;;;;;;13.13;8.57;;;5.60;99.90;;;;;;5052594;28;20187;-44
2022/01/27 08:50:22;;;;;;;10.00;8.33;;;5.70;99.90;;;;;;5048546;28;20215;-46
2022/01/27 08:52:51;;;;;;;11.97;8.63;;;5.70;99.90;;;;;;5055217;28;20209;-43
2022/01/27 08:55:18;;;;;;;10.67;7.63;;;5.70;99.90;;;;;;5054996;28;20224;-43
2022/01/27 08:57:44;;;;;;;12.03;7.57;;;5.70;99.90;;;;;;5055247;28;20183;-47
2022/01/27 09:00:13;;;;;;;14.33;7.63;;;5.70;99.90;;;;;;5060488;28;20218;-43
2022/01/27 09:02:40;;;;;;;15.83;7.97;;;5.70;99.90;;;;;;5050227;28;20201;-43
2022/01/27 09:05:08;;;;;;;12.60;7.90;;;5.80;99.90;;;;;;5046423;28;20211;-45
2022/01/27 09:07:36;;;;;;;11.50;7.93;;;5.80;99.90;;;;;;5058709;28;20203;-45
2022/01/27 09:10:06;;;;;;;12.20;8.50;;;5.80;99.90;;;;;;5054164;28;20214;-43
2022/01/27 09:12:33;;;;;;;15.50;8.37;;;5.80;99.90;;;;;;5050911;28;20209;-45
2022/01/27 09:15:02;;;;;;;12.93;8.50;;;5.90;99.90;;;;;;5060052;28;20202;-45
2022/01/27 09:17:31;;;;;;;11.47;7.90;;;5.90;99.90;;;;;;5062312;28;20207;-46
2022/01/27 09:19:57;;;;;;;12.63;8.43;;;5.90;99.90;;;;;;5044123;28;24480;-47
2022/01/27 09:22:25;;;;;;;14.47;9.13;;;5.90;99.90;;;;;;5058726;28;20206;-43
2022/01/27 09:24:56;;;;;;;13.07;7.97;;;5.90;99.90;;;;;;5054115;28;20206;-44
2022/01/27 09:27:25;;;;;;;14.50;8.60;;;6.00;99.90;;;;;;5059295;28;20252;-46
2022/01/27 09:29:53;;;;;;;11.97;7.80;;;6.00;99.90;;;;;;5060216;28;20190;-46
2022/01/27 09:32:21;;;;;;;13.57;7.20;;;6.00;99.90;;;;;;5060290;28;20648;-44
2022/01/27 09:34:48;;;;;;;10.47;6.33;;;6.00;99.90;;;;;;5034824;28;21242;-44
2022/01/27 09:37:15;;;;;;;12.67;7.23;;;6.10;99.90;;;;;;5061395;28;20230;-44
2022/01/27 09:39:42;;;;;;;9.17;6.03;;;6.10;99.90;;;;;;5055068;28;20198;-44
2022/01/27 09:42:09;;;;;;;10.43;6.60;;;6.10;99.90;;;;;;5056511;28;20215;-48
2022/01/27 09:44:40;;;;;;;8.03;5.50;;;6.10;99.90;;;;;;5052721;28;20208;-45
2022/01/27 09:47:11;;;;;;;8.47;5.70;;;6.20;99.90;;;;;;5061652;28;20226;-44
2022/01/27 09:49:41;;;;;;;8.47;5.90;;;6.20;99.90;;;;;;5047626;28;20305;-44
2022/01/27 09:52:09;;;;;;;10.97;6.53;;;6.20;99.90;;;;;;5048877;28;20291;-44
2022/01/27 09:54:37;;;;;;;9.20;5.73;;;6.20;99.90;;;;;;5055173;28;20564;-44
2022/01/27 09:57:05;;;;;;;13.93;5.63;;;6.30;99.90;;;;;;5054303;28;20233;-46
2022/01/27 09:59:32;;;;;;;11.80;6.07;;;6.30;99.90;;;;;;5060930;28;20224;-47
2022/01/27 10:02:02;;;;;;;10.03;5.33;;;6.30;99.90;;;;;;5053893;28;20209;-45
2022/01/27 10:04:43;;;;;;;13.47;6.30;;;6.30;99.90;;;;;;5052280;28;20202;-43
2022/01/27 10:07:10;;;;;;;10.17;5.63;;;6.40;99.90;;;;;;5043910;28;20226;-43
2022/01/27 10:09:37;;;;;;;11.30;5.77;;;6.40;99.90;;;;;;5059619;28;20204;-45
2022/01/27 10:12:08;;;;;;;11.03;5.80;;;6.40;99.90;;;;;;5047341;28;20196;-46
2022/01/27 10:14:38;;;;;;;10.13;5.83;;;6.40;99.90;;;;;;5058320;28;20198;-44
2022/01/27 10:17:12;;;;;;;11.77;5.87;;;6.50;99.90;;;;;;5053801;28;20258;-45
2022/01/27 10:19:39;;;;;;;9.10;5.70;;;6.50;99.90;;;;;;5049521;28;20205;-46
2022/01/27 10:22:11;;;;;;;8.33;5.20;;;6.50;99.90;;;;;;5054379;28;20242;-44
2022/01/27 10:24:39;;;;;;;9.60;6.13;;;6.60;99.90;;;;;;5044518;28;20207;-43
2022/01/27 10:27:21;;;;;;;14.70;6.07;;;6.60;99.90;;;;;;5053802;28;20214;-43
2022/01/27 10:30:04;;;;;;;13.20;6.50;;;6.60;99.90;;;;;;5056738;28;20241;-43
2022/01/27 10:32:42;;;;;;;14.23;5.53;;;6.60;99.90;;;;;;5053081;28;20274;-46
2022/01/27 10:35:12;;;;;;;10.00;6.03;;;6.70;99.90;;;;;;5053872;28;20225;-45
2022/01/27 10:37:57;;;;;;;8.47;5.60;;;6.70;99.90;;;;;;5027658;28;20215;-49
2022/01/27 10:40:27;;;;;;;11.30;6.23;;;6.70;99.90;;;;;;5059777;28;20202;-44
2022/01/27 10:43:07;;;;;;;9.40;6.57;;;6.80;99.90;;;;;;5048004;28;20214;-44
2022/01/27 10:45:34;;;;;;;11.67;6.13;;;6.80;99.90;;;;;;5048097;28;20267;-44
2022/01/27 10:48:19;;;;;;;13.10;6.37;;;6.90;99.90;;;;;;5059426;28;20195;-43
2022/01/27 10:51:00;;;;;;;14.27;6.53;;;6.90;99.90;;;;;;5056290;28;20195;-44
2022/01/27 10:53:47;;;;;;;11.63;7.07;;;6.90;99.90;;;;;;5044743;28;20209;-44
2022/01/27 10:56:18;;;;;;;14.00;6.63;;;7.00;99.90;;;;;;5052749;28;20222;-45
2022/01/27 10:58:45;;;;;;;11.83;6.67;;;7.00;99.90;;;;;;5045372;28;20202;-44
2022/01/27 11:01:21;;;;;;;16.47;6.07;;;7.10;99.90;;;;;;5057497;28;20233;-45
2022/01/27 11:03:52;;;;;;;14.90;7.47;;;7.10;99.90;;;;;;5050652;28;20209;-44
2022/01/27 11:06:20;;;;;;;17.73;7.70;;;7.20;99.90;;;;;;5056046;28;20565;-43
2022/01/27 11:08:48;;;;;;;21.27;8.00;;;7.20;99.90;;;;;;5035091;28;20217;-45
2022/01/27 11:11:15;;;;;;;22.07;6.57;;;7.30;99.90;;;;;;5056054;28;20222;-46
2022/01/27 11:13:44;;;;;;;28.87;8.00;;;7.40;99.90;;;;;;5041178;28;20203;-44
2022/01/27 11:16:15;;;;;;;23.53;6.57;;;7.40;99.90;;;;;;5054485;28;20229;-43
2022/01/27 11:18:44;;;;;;;25.93;6.33;;;7.50;99.90;;;;;;5050799;28;20183;-45
2022/01/27 11:21:25;;;;;;;21.70;6.10;;;7.60;99.90;;;;;;5062062;28;20846;-45
2022/01/27 11:24:07;;;;;;;19.27;5.23;;;7.60;99.90;;;;;;5038674;28;20213;-47
2022/01/27 11:26:40;;;;;;;28.20;6.40;;;7.70;99.90;;;;;;5057545;28;20294;-45
2022/01/27 11:29:09;;;;;;;26.43;5.17;;;7.70;99.90;;;;;;5056035;28;20202;-46
2022/01/27 11:31:53;;;;;;;22.03;5.67;;;7.80;99.90;;;;;;5046483;28;20203;-44
2022/01/27 11:34:20;;;;;;;24.07;5.40;;;7.90;99.90;;;;;;5060189;28;20205;-43
2022/01/27 11:37:05;;;;;;;18.13;5.33;;;8.00;99.90;;;;;;5054280;28;20806;-47
2022/01/27 11:39:52;;;;;;;21.97;5.20;;;8.10;99.90;;;;;;5043970;28;20199;-44
2022/01/27 11:42:22;;;;;;;24.40;5.63;;;8.20;99.90;;;;;;5054887;28;20221;-44
2022/01/27 11:44:48;;;;;;;26.93;5.03;;;8.20;99.90;;;;;;5051860;28;20218;-45
2022/01/27 11:47:22;;;;;;;23.57;5.63;;;8.20;99.90;;;;;;5062505;28;20594;-46
2022/01/27 11:50:00;;;;;;;22.73;3.73;;;8.30;99.90;;;;;;5056818;28;20191;-45
2022/01/27 11:52:33;;;;;;;22.10;4.80;;;8.30;99.90;;;;;;5048976;28;20191;-43
2022/01/27 11:55:32;;;;;;;29.53;5.10;;;8.30;99.90;;;;;;5058973;28;20223;-45
2022/01/27 11:58:00;;;;;;;26.07;5.33;;;8.40;99.90;;;;;;5057042;28;20911;-43
2022/01/27 12:00:29;;;;;;;23.60;5.97;;;8.50;99.90;;;;;;5048649;28;20667;-47
2022/01/27 12:03:14;;;;;;;26.77;5.20;;;8.50;99.90;;;;;;5050917;28;20214;-46
2022/01/27 12:05:42;;;;;;;16.70;4.13;;;8.60;99.90;;;;;;5056887;28;20840;-48
2022/01/27 12:08:26;;;;;;;25.67;4.87;;;8.60;99.90;;;;;;5060891;28;20686;-45
2022/01/27 12:10:56;;;;;;;30.60;4.47;;;8.60;99.90;;;;;;5055585;28;20508;-50
2022/01/27 12:13:55;;;;;;;16.73;3.83;;;8.70;99.90;;;;;;5046645;28;20217;-44
2022/01/27 12:19:09;;;;;;;20.67;4.57;;;8.80;99.90;;;;;;5056255;28;20190;-44
2022/01/27 12:21:39;;;;;;;20.23;4.30;;;8.80;99.90;;;;;;5047837;28;20210;-45
2022/01/27 12:24:24;;;;;;;23.07;4.20;;;8.80;99.90;;;;;;5052434;28;20191;-44
2022/01/27 12:26:52;;;;;;;23.60;4.23;;;8.80;99.90;;;;;;5054120;28;20307;-44
2022/01/27 12:29:39;;;;;;;15.63;3.87;;;8.80;99.90;;;;;;5046309;28;20569;-43
2022/01/27 12:32:09;;;;;;;24.57;4.10;;;8.80;99.90;;;;;;5049963;28;20211;-45
2022/01/27 12:34:38;;;;;;;14.63;3.30;;;8.80;99.90;;;;;;5053965;28;20209;-45
2022/01/27 12:37:07;;;;;;;15.47;3.37;;;8.70;99.90;;;;;;5057749;28;20224;-44
2022/01/27 12:39:37;;;;;;;16.13;3.90;;;8.70;99.90;;;;;;5055879;28;20548;-45
2022/01/27 12:42:07;;;;;;;19.57;3.23;;;8.70;99.90;;;;;;5054595;28;20269;-48
2022/01/27 12:44:34;;;;;;;20.10;4.47;;;8.70;99.90;;;;;;5039772;28;20219;-47
2022/01/27 12:47:03;;;;;;;13.57;4.13;;;8.80;99.90;;;;;;5054502;28;20254;-43
2022/01/27 12:49:44;;;;;;;12.30;3.43;;;8.80;99.90;;;;;;5056008;28;20638;-46
2022/01/27 12:52:15;;;;;;;16.33;3.50;;;8.90;99.90;;;;;;5064367;28;20596;-44
2022/01/27 12:54:44;;;;;;;18.03;3.60;;;8.90;99.90;;;;;;5055883;28;20339;-43
2022/01/27 12:57:12;;;;;;;16.53;3.20;;;8.90;99.90;;;;;;5055506;28;20230;-44
2022/01/27 12:59:42;;;;;;;18.00;3.90;;;8.90;99.90;;;;;;5038531;28;20210;-44
2022/01/27 13:02:10;;;;;;;19.40;3.73;;;8.80;99.90;;;;;;5046046;28;20273;-46
2022/01/27 13:04:38;;;;;;;21.63;3.87;;;8.80;99.90;;;;;;5056427;28;20668;-45
2022/01/27 13:07:06;;;;;;;21.13;4.30;;;8.80;99.90;;;;;;5064697;28;20234;-46
2022/01/27 13:09:34;;;;;;;18.13;3.03;;;8.90;99.90;;;;;;5061325;28;20273;-45
2022/01/27 13:12:16;;;;;;;18.80;3.20;;;8.90;99.90;;;;;;5063947;28;20281;-45
2022/01/27 13:14:51;;;;;;;15.13;4.13;;;8.80;99.90;;;;;;5044370;28;20206;-43
2022/01/27 13:17:31;;;;;;;13.07;2.93;;;8.70;99.90;;;;;;5051750;28;20237;-44
2022/01/27 13:20:09;;;;;;;13.90;2.80;;;8.70;99.90;;;;;;5053129;28;20190;-44
2022/01/27 13:22:45;;;;;;;11.53;2.60;;;8.60;99.90;;;;;;5048563;28;20898;-47